Time;durP1;ratioP1;P1;durP2;ratioP2;P2;SDS_P1;SDS_P2;PMS_P1;PMS_P2;Temp;Humidity;BMP_temperature;BMP_pressure;BME280_temperature;BME280_humidity;BME280_pressure;Samples;Min_cycle;Max_cycle;Signal;HPM_P1;HPM_P2
2022/02/20 00:01:08;;;;;;;11.30;6.45;;;;;;;4.38;81.45;94795.47;5003930;28;20492;-81
2022/02/20 00:03:34;;;;;;;9.38;6.70;;;;;;;4.63;80.09;94821.34;5001644;28;20088;-80
2022/02/20 00:06:01;;;;;;;16.08;9.90;;;;;;;4.29;79.65;94786.06;5008806;28;20030;-81
2022/02/20 00:08:27;;;;;;;19.90;9.50;;;;;;;4.70;78.05;94829.28;5006446;28;20041;-82
2022/02/20 00:10:52;;;;;;;21.92;11.98;;;;;;;4.51;78.53;94807.06;5006330;28;20030;-80
2022/02/20 00:13:19;;;;;;;20.92;12.75;;;;;;;4.39;78.81;94807.34;5007303;28;20044;-80
2022/02/20 00:15:44;;;;;;;20.52;10.60;;;;;;;4.35;80.14;94832.44;5005789;28;20050;-81
2022/02/20 00:18:10;;;;;;;16.15;10.43;;;;;;;4.18;81.34;94800.63;4995533;28;20081;-82
2022/02/20 00:20:36;;;;;;;19.50;11.55;;;;;;;4.20;80.86;94791.06;5010415;28;20038;-80
2022/02/20 00:23:03;;;;;;;16.10;9.27;;;;;;;4.76;78.88;94839.81;4997562;28;20026;-80
2022/02/20 00:25:34;;;;;;;13.70;7.97;;;;;;;4.28;78.77;94789.56;5006067;28;20512;-81
2022/02/20 00:28:01;;;;;;;16.88;8.40;;;;;;;4.50;79.20;94843.91;4992341;28;20489;-81
2022/02/20 00:30:27;;;;;;;10.48;6.80;;;;;;;4.33;79.58;94806.16;5010876;28;20086;-82
2022/02/20 00:32:54;;;;;;;12.02;7.45;;;;;;;4.21;80.22;94787.53;5012544;28;20026;-81
2022/02/20 00:35:20;;;;;;;11.50;7.70;;;;;;;4.12;80.34;94795.22;5012683;28;20046;-82
2022/02/20 00:37:45;;;;;;;22.85;14.35;;;;;;;3.51;86.49;94813.38;5002327;28;20030;-79
2022/02/20 00:40:11;;;;;;;23.55;12.35;;;;;;;3.68;87.45;94806.81;4996775;28;20023;-80
2022/02/20 00:42:37;;;;;;;11.07;6.40;;;;;;;3.49;86.04;94771.75;4999301;28;20564;-80
2022/02/20 00:45:03;;;;;;;23.90;15.45;;;;;;;4.08;84.73;94827.19;4994840;28;20030;-79
2022/02/20 00:47:28;;;;;;;36.47;20.90;;;;;;;4.07;86.05;94848.66;4981986;28;20039;-81
2022/02/20 00:49:55;;;;;;;24.55;15.98;;;;;;;4.04;85.33;94813.06;5007938;28;20501;-80
2022/02/20 00:52:20;;;;;;;17.83;12.55;;;;;;;3.96;86.12;94816.28;5007148;28;20026;-81
2022/02/20 00:54:46;;;;;;;14.25;8.70;;;;;;;4.07;85.25;94833.28;5009269;28;20037;-81
2022/02/20 00:57:12;;;;;;;9.18;5.50;;;;;;;3.92;84.18;94811.53;5009313;28;20046;-81
2022/02/20 00:59:37;;;;;;;12.77;6.72;;;;;;;4.00;85.11;94814.25;4990096;28;20022;-81
2022/02/20 01:02:04;;;;;;;7.90;5.00;;;;;;;3.80;86.49;94799.81;5007525;28;20034;-81
2022/02/20 01:04:30;;;;;;;11.27;6.30;;;;;;;3.72;85.58;94791.03;5010157;28;20065;-81
2022/02/20 01:06:55;;;;;;;7.20;4.10;;;;;;;3.81;83.93;94812.50;5008055;28;20475;-81
2022/02/20 01:09:22;;;;;;;7.18;3.53;;;;;;;3.90;83.65;94823.69;5012383;28;20062;-81
2022/02/20 01:11:48;;;;;;;7.10;3.30;;;;;;;3.99;83.16;94807.50;5004210;28;20023;-80
2022/02/20 01:14:13;;;;;;;6.25;4.03;;;;;;;3.86;83.85;94805.22;5008354;28;20139;-81
2022/02/20 01:16:39;;;;;;;7.95;4.82;;;;;;;3.67;84.74;94785.53;5008910;28;20068;-81
2022/02/20 01:19:05;;;;;;;7.45;4.55;;;;;;;3.84;84.67;94803.72;5007657;28;20119;-80
2022/02/20 01:21:31;;;;;;;9.48;5.90;;;;;;;3.73;83.82;94764.50;5007418;28;20031;-81
2022/02/20 01:23:56;;;;;;;6.32;4.65;;;;;;;3.39;85.11;94770.94;5007842;28;20018;-82
2022/02/20 01:26:22;;;;;;;6.03;4.05;;;;;;;3.16;88.46;94790.81;5013394;28;20070;-81
2022/02/20 01:28:48;;;;;;;8.50;4.90;;;;;;;3.77;88.46;94848.72;5004192;28;20018;-80
2022/02/20 01:31:13;;;;;;;10.02;5.63;;;;;;;3.33;88.69;94794.50;5005164;28;20049;-81
2022/02/20 01:33:39;;;;;;;11.05;6.72;;;;;;;3.54;87.20;94818.22;5010387;28;20030;-81
2022/02/20 01:36:05;;;;;;;6.82;4.43;;;;;;;3.59;85.06;94798.19;4991947;28;20086;-80
2022/02/20 01:38:31;;;;;;;6.90;4.70;;;;;;;3.59;86.39;94813.56;4999986;28;20027;-80
2022/02/20 01:40:56;;;;;;;8.27;5.82;;;;;;;3.56;85.67;94793.31;4988090;28;20100;-80
2022/02/20 01:43:23;;;;;;;11.15;5.90;;;;;;;3.88;84.30;94834.06;4993091;28;20022;-80
2022/02/20 01:45:48;;;;;;;11.35;6.55;;;;;;;3.77;83.15;94805.19;5011732;28;20026;-80
2022/02/20 01:48:14;;;;;;;6.65;4.47;;;;;;;3.77;83.76;94825.69;4995042;28;20084;-81
2022/02/20 01:50:40;;;;;;;7.15;4.35;;;;;;;3.68;84.62;94810.19;5009670;28;20480;-80
2022/02/20 01:53:05;;;;;;;9.02;4.10;;;;;;;3.60;85.15;94807.47;5008487;28;20014;-80
2022/02/20 01:55:31;;;;;;;8.32;4.43;;;;;;;3.58;83.73;94786.31;5012544;28;20033;-81
2022/02/20 01:57:57;;;;;;;8.13;4.82;;;;;;;3.67;85.61;94841.84;5010724;28;20023;-80
2022/02/20 02:00:24;;;;;;;7.43;5.28;;;;;;;3.17;87.85;94781.38;4992924;28;20057;-81
2022/02/20 02:02:50;;;;;;;5.90;5.00;;;;;;;3.28;89.65;94814.53;5009971;28;20094;-81
2022/02/20 02:05:15;;;;;;;12.23;5.60;;;;;;;3.45;91.04;94818.22;5013061;28;20472;-81
2022/02/20 02:07:41;;;;;;;9.70;5.38;;;;;;;3.48;88.88;94794.91;5012818;28;20062;-81
2022/02/20 02:10:07;;;;;;;8.00;5.47;;;;;;;3.35;89.78;94817.38;5008042;28;20073;-79
2022/02/20 02:12:34;;;;;;;8.23;4.68;;;;;;;3.38;88.48;94820.47;5007370;28;20041;-81
2022/02/20 02:15:03;;;;;;;10.52;4.93;;;;;;;2.97;88.38;94772.03;4998860;28;20026;-81
2022/02/20 02:17:29;;;;;;;10.48;5.00;;;;;;;3.08;89.35;94820.53;5013192;28;20022;-81
2022/02/20 02:19:55;;;;;;;14.20;6.15;;;;;;;2.89;91.50;94772.66;4995624;28;20054;-80
2022/02/20 02:22:25;;;;;;;12.65;6.30;;;;;;;2.91;91.03;94767.44;5012660;28;20026;-81
2022/02/20 02:24:52;;;;;;;7.93;5.53;;;;;;;3.12;90.96;94798.84;5015207;28;20041;-82
2022/02/20 02:27:17;;;;;;;10.85;6.45;;;;;;;3.22;89.36;94786.91;5015612;28;20049;-81
2022/02/20 02:29:45;;;;;;;7.20;5.85;;;;;;;2.99;88.92;94762.47;5014802;28;20026;-81
2022/02/20 02:32:11;;;;;;;9.95;5.50;;;;;;;3.05;88.88;94765.31;5015040;28;20017;-82
2022/02/20 02:34:39;;;;;;;49.83;34.42;;;;;;;3.08;89.32;94764.25;4998719;28;20033;-81
2022/02/20 02:37:05;;;;;;;30.35;20.02;;;;;;;2.66;91.92;94751.56;5015580;28;20081;-82
2022/02/20 02:39:30;;;;;;;24.83;15.77;;;;;;;2.98;91.39;94764.25;4997381;28;20026;-81
2022/02/20 02:41:56;;;;;;;8.82;6.65;;;;;;;2.90;92.18;94747.91;5015597;28;20027;-82
2022/02/20 02:44:22;;;;;;;12.43;7.65;;;;;;;2.90;90.92;94735.13;5015240;28;20101;-82
2022/02/20 02:46:48;;;;;;;8.43;4.50;;;;;;;2.79;93.43;94751.38;5013791;28;20057;-81
2022/02/20 02:49:14;;;;;;;7.90;4.47;;;;;;;3.03;93.22;94767.19;5011465;28;20071;-81
2022/02/20 02:51:39;;;;;;;8.45;4.88;;;;;;;3.01;92.37;94753.75;4998566;28;20029;-81
2022/02/20 02:54:07;;;;;;;5.53;3.67;;;;;;;2.86;93.14;94742.25;5014418;28;20026;-81
2022/02/20 02:56:33;;;;;;;7.97;4.15;;;;;;;3.19;93.21;94761.59;5011143;28;20026;-80
2022/02/20 02:58:58;;;;;;;10.82;7.57;;;;;;;3.14;93.32;94766.31;5008579;28;20041;-81
2022/02/20 03:01:24;;;;;;;7.28;5.75;;;;;;;2.89;92.67;94701.06;5012822;28;20041;-81
2022/02/20 03:03:50;;;;;;;7.72;5.05;;;;;;;2.85;92.24;94704.03;5013013;28;20041;-81
2022/02/20 03:06:15;;;;;;;9.38;6.85;;;;;;;2.95;92.36;94709.97;5010662;28;20085;-80
2022/02/20 03:08:41;;;;;;;13.82;9.60;;;;;;;2.91;91.92;94706.06;4995490;28;20034;-81
2022/02/20 03:11:07;;;;;;;47.25;20.90;;;;;;;3.07;91.28;94743.00;5012378;28;20029;-80
2022/02/20 03:13:34;;;;;;;82.60;30.30;;;;;;;2.91;91.46;94709.44;5007879;28;20030;-80
2022/02/20 03:16:00;;;;;;;96.80;40.35;;;;;;;3.20;91.43;94786.25;5006111;28;20022;-80
2022/02/20 03:18:29;;;;;;;106.93;43.05;;;;;;;3.24;92.02;94787.59;4995774;28;20054;-81
2022/02/20 03:20:56;;;;;;;76.50;32.92;;;;;;;2.98;92.01;94760.88;5013487;28;20035;-82
2022/02/20 03:23:22;;;;;;;7.03;4.95;;;;;;;2.39;95.31;94747.94;5014763;28;20045;-80
2022/02/20 03:25:49;;;;;;;8.93;4.60;;;;;;;2.35;95.80;94698.03;5016071;28;20030;-83
2022/02/20 03:28:15;;;;;;;9.57;4.45;;;;;;;2.80;93.92;94701.84;4997616;28;20054;-81
2022/02/20 03:30:40;;;;;;;9.30;5.13;;;;;;;3.04;94.08;94738.13;4991893;28;20043;-80
2022/02/20 03:33:06;;;;;;;10.32;6.72;;;;;;;2.89;94.13;94683.16;5009224;28;20037;-81
2022/02/20 03:35:32;;;;;;;8.93;5.38;;;;;;;3.08;92.85;94703.66;4996574;28;20040;-81
2022/02/20 03:37:57;;;;;;;10.38;5.30;;;;;;;3.31;92.14;94708.56;5013787;28;20030;-81
2022/02/20 03:40:23;;;;;;;6.82;5.22;;;;;;;3.53;92.08;94752.63;5011398;28;20033;-80
2022/02/20 03:42:49;;;;;;;13.07;5.55;;;;;;;3.25;93.37;94744.91;5011783;28;20089;-82
2022/02/20 03:45:15;;;;;;;12.30;7.50;;;;;;;3.11;93.79;94715.41;4993705;28;20033;-80
2022/02/20 03:47:41;;;;;;;12.48;8.95;;;;;;;3.51;94.38;94785.22;4994199;28;20030;-81
2022/02/20 03:50:07;;;;;;;15.48;9.40;;;;;;;3.25;93.93;94735.47;5010212;28;20047;-81
2022/02/20 03:52:32;;;;;;;12.05;6.13;;;;;;;3.40;94.75;94762.31;5002014;28;20042;-79
2022/02/20 03:54:58;;;;;;;10.20;6.30;;;;;;;3.13;94.51;94716.88;5001320;28;20525;-80
2022/02/20 03:57:23;;;;;;;10.80;7.15;;;;;;;3.35;91.31;94686.88;5003464;28;20029;-81
2022/02/20 03:59:49;;;;;;;10.40;7.07;;;;;;;3.48;89.92;94685.69;5002289;28;20070;-80
2022/02/20 04:02:15;;;;;;;8.30;6.03;;;;;;;3.12;93.84;94699.09;5009465;28;20027;-81
2022/02/20 04:04:40;;;;;;;9.88;5.47;;;;;;;3.22;93.87;94682.03;5011681;28;20030;-82
2022/02/20 04:07:06;;;;;;;7.35;5.65;;;;;;;3.50;93.30;94719.59;5007723;28;20033;-81
2022/02/20 04:09:32;;;;;;;9.23;6.25;;;;;;;3.30;95.46;94725.66;4985093;28;20073;-81
2022/02/20 04:11:57;;;;;;;8.50;5.68;;;;;;;3.17;95.73;94735.34;5003753;28;20026;-80
2022/02/20 04:14:23;;;;;;;10.13;5.40;;;;;;;3.21;95.43;94726.47;4985001;28;20061;-80
2022/02/20 04:16:49;;;;;;;9.70;5.40;;;;;;;3.36;95.54;94747.34;4987375;28;20033;-80
2022/02/20 04:19:14;;;;;;;10.90;6.22;;;;;;;3.39;94.06;94749.66;5007640;28;20023;-80
2022/02/20 04:21:40;;;;;;;9.25;6.45;;;;;;;3.47;93.66;94765.13;4985833;28;20034;-80
2022/02/20 04:24:06;;;;;;;10.27;6.78;;;;;;;3.72;93.47;94810.72;5004941;28;20411;-80
2022/02/20 04:26:31;;;;;;;9.45;5.80;;;;;;;3.45;93.45;94769.59;5012156;28;20093;-80
2022/02/20 04:28:57;;;;;;;8.55;4.38;;;;;;;3.71;92.21;94797.13;4990500;28;20034;-80
2022/02/20 04:31:22;;;;;;;17.80;7.68;;;;;;;3.79;92.51;94806.69;5016414;28;20018;-81
2022/02/20 04:33:48;;;;;;;10.30;4.75;;;;;;;3.37;93.23;94793.25;4994967;28;20030;-81
2022/02/20 04:36:14;;;;;;;8.88;5.10;;;;;;;3.61;92.78;94806.53;5010790;28;20030;-80
2022/02/20 04:38:40;;;;;;;6.25;4.68;;;;;;;3.58;94.69;94814.47;4993730;28;20095;-80
2022/02/20 04:41:05;;;;;;;5.57;4.47;;;;;;;3.53;93.92;94782.56;5011378;28;20027;-80
2022/02/20 04:43:32;;;;;;;7.93;4.78;;;;;;;4.02;93.36;94855.91;5011123;28;20057;-80
2022/02/20 04:45:58;;;;;;;9.52;6.40;;;;;;;4.15;92.40;94839.34;5014760;28;20038;-80
2022/02/20 04:48:24;;;;;;;14.93;6.68;;;;;;;4.08;91.96;94835.69;5009874;28;20493;-80
2022/02/20 04:50:49;;;;;;;11.02;6.53;;;;;;;4.18;91.02;94833.13;5011845;28;20038;-81
2022/02/20 04:53:15;;;;;;;12.70;7.47;;;;;;;4.13;90.33;94825.03;5005457;28;20034;-80
2022/02/20 04:55:41;;;;;;;16.30;9.57;;;;;;;4.27;90.56;94868.19;5003419;28;20530;-79
2022/02/20 04:58:06;;;;;;;16.58;8.40;;;;;;;4.34;89.37;94843.63;4994004;28;20061;-81
2022/02/20 05:00:32;;;;;;;11.93;8.88;;;;;;;4.68;87.45;94896.13;5013863;28;20061;-83
2022/02/20 05:02:57;;;;;;;17.48;9.65;;;;;;;4.34;87.42;94841.06;4994602;28;20041;-79
2022/02/20 05:05:23;;;;;;;11.35;7.05;;;;;;;4.59;87.51;94894.34;4996633;28;20027;-79
2022/02/20 05:07:48;;;;;;;11.27;6.82;;;;;;;4.62;86.60;94888.94;5000565;28;20035;-79
2022/02/20 05:10:14;;;;;;;11.00;7.10;;;;;;;4.66;85.04;94884.38;4986006;28;20030;-80
2022/02/20 05:12:40;;;;;;;11.77;7.65;;;;;;;4.86;85.10;94911.63;5003892;28;20038;-79
2022/02/20 05:15:05;;;;;;;12.90;7.43;;;;;;;4.80;85.47;94909.59;5006510;28;20065;-80
2022/02/20 05:17:31;;;;;;;11.18;6.50;;;;;;;4.72;85.06;94887.19;5004817;28;20040;-80
2022/02/20 05:19:57;;;;;;;11.68;7.68;;;;;;;4.82;85.37;94897.44;5004357;28;20022;-80
2022/02/20 05:22:22;;;;;;;17.95;8.60;;;;;;;4.50;85.60;94843.09;4984912;28;20030;-80
2022/02/20 05:24:50;;;;;;;12.55;8.05;;;;;;;4.13;92.04;94840.41;5003666;28;20488;-80
2022/02/20 05:27:16;;;;;;;12.40;8.73;;;;;;;4.22;94.36;94888.28;5006406;28;20484;-81
2022/02/20 05:29:41;;;;;;;11.93;7.97;;;;;;;3.23;100.00;94847.38;5011859;28;20061;-80
2022/02/20 05:32:08;;;;;;;15.35;8.38;;;;;;;3.19;100.00;94851.13;5012866;28;20030;-80
2022/02/20 05:34:33;;;;;;;11.88;7.40;;;;;;;3.02;100.00;94844.03;5013936;28;20031;-81
2022/02/20 05:36:59;;;;;;;10.93;8.00;;;;;;;3.10;100.00;94849.34;5014135;28;20038;-80
2022/02/20 05:39:24;;;;;;;11.02;7.40;;;;;;;3.30;100.00;94845.94;5005127;28;20022;-80
2022/02/20 05:41:50;;;;;;;14.63;8.40;;;;;;;3.71;99.16;94875.69;5006928;28;20026;-80
2022/02/20 05:44:16;;;;;;;14.95;8.85;;;;;;;3.90;98.86;94921.81;5008622;28;20029;-81
2022/02/20 05:46:41;;;;;;;12.27;8.27;;;;;;;3.60;100.00;94912.44;5004709;28;20027;-80
2022/02/20 05:49:07;;;;;;;14.50;8.18;;;;;;;3.47;100.00;94896.47;4990539;28;20046;-80
2022/02/20 05:51:32;;;;;;;11.10;8.18;;;;;;;3.45;100.00;94903.50;5008693;28;20034;-80
2022/02/20 05:53:58;;;;;;;15.50;8.75;;;;;;;3.37;100.00;94918.66;5009170;28;20033;-82
2022/02/20 05:56:24;;;;;;;17.27;10.57;;;;;;;3.43;100.00;94913.06;5015066;28;20029;-81
2022/02/20 05:58:49;;;;;;;17.90;10.30;;;;;;;3.45;100.00;94920.59;4994897;28;20041;-81
2022/02/20 06:01:15;;;;;;;15.65;10.30;;;;;;;3.41;100.00;94922.59;5012760;28;20019;-81
2022/02/20 06:03:40;;;;;;;15.00;9.00;;;;;;;3.40;100.00;94920.19;4995632;28;20018;-80
2022/02/20 06:06:06;;;;;;;13.45;9.95;;;;;;;3.53;100.00;94948.94;4993161;28;20019;-82
2022/02/20 06:08:32;;;;;;;14.40;9.80;;;;;;;3.36;100.00;94906.00;5014190;28;20037;-81
2022/02/20 06:10:57;;;;;;;16.05;9.63;;;;;;;3.47;100.00;94906.72;4993968;28;20037;-81
2022/02/20 06:13:23;;;;;;;13.60;9.10;;;;;;;3.49;99.88;94870.78;4993142;28;20026;-81
2022/02/20 06:15:49;;;;;;;15.13;9.75;;;;;;;3.42;100.00;94890.94;5012752;28;20026;-81
2022/02/20 06:18:15;;;;;;;12.60;9.35;;;;;;;3.35;100.00;94878.78;5013907;28;20026;-80
2022/02/20 06:20:40;;;;;;;13.95;9.73;;;;;;;4.02;100.00;94932.75;5011053;28;20026;-81
2022/02/20 06:23:06;;;;;;;14.80;10.18;;;;;;;3.89;99.50;94909.13;5010056;28;20038;-80
2022/02/20 06:25:32;;;;;;;17.92;11.48;;;;;;;3.91;99.76;94914.94;5010153;28;20034;-80
2022/02/20 06:27:58;;;;;;;19.05;9.90;;;;;;;4.21;98.97;94953.28;5009401;28;20065;-80
2022/02/20 06:30:24;;;;;;;25.17;10.88;;;;;;;4.47;98.02;94974.09;5009466;28;20111;-81
2022/02/20 06:32:49;;;;;;;17.77;10.90;;;;;;;4.11;97.26;94896.13;5013028;28;20030;-81
2022/02/20 06:35:15;;;;;;;52.75;30.52;;;;;;;3.97;96.55;94869.13;5016490;28;20026;-81
2022/02/20 06:37:41;;;;;;;31.50;20.08;;;;;;;3.97;97.44;94870.88;5015064;28;20025;-81
2022/02/20 06:40:07;;;;;;;22.00;14.52;;;;;;;4.01;96.76;94844.06;5012873;28;20026;-81
2022/02/20 06:42:33;;;;;;;19.98;12.75;;;;;;;4.13;96.47;94861.72;4995800;28;20120;-80
2022/02/20 06:44:59;;;;;;;11.77;9.73;;;;;;;4.28;97.58;94879.25;5011973;28;20013;-81
2022/02/20 06:47:24;;;;;;;13.30;9.60;;;;;;;4.30;96.42;94869.69;5009112;28;20034;-80
2022/02/20 06:49:50;;;;;;;14.02;9.38;;;;;;;4.68;94.52;94885.06;5010883;28;20069;-81
2022/02/20 06:52:16;;;;;;;18.75;10.63;;;;;;;5.11;93.39;94917.91;5008994;28;20022;-80
2022/02/20 06:54:42;;;;;;;14.27;9.40;;;;;;;5.16;94.50;94926.03;5008689;28;20058;-81
2022/02/20 06:57:08;;;;;;;15.20;8.95;;;;;;;4.96;92.83;94873.13;5007598;28;20511;-81
2022/02/20 06:59:33;;;;;;;13.30;8.75;;;;;;;4.97;94.21;94879.88;5007919;28;20026;-81
2022/02/20 07:01:59;;;;;;;16.77;9.07;;;;;;;5.35;93.40;94897.72;5007610;28;20041;-80
2022/02/20 07:04:25;;;;;;;14.80;9.43;;;;;;;5.18;95.20;94885.63;4995452;28;20077;-81
2022/02/20 07:06:50;;;;;;;15.18;9.38;;;;;;;5.13;94.19;94869.84;4971167;28;20618;-80
2022/02/20 07:09:16;;;;;;;13.25;9.07;;;;;;;5.31;94.07;94863.00;4986753;28;20033;-80
2022/02/20 07:11:42;;;;;;;16.50;10.07;;;;;;;5.82;92.06;94919.03;4988442;28;20027;-80
2022/02/20 07:14:09;;;;;;;19.83;12.75;;;;;;;5.78;93.45;94921.06;4984616;28;20082;-80
2022/02/20 07:16:34;;;;;;;14.80;10.10;;;;;;;5.51;92.41;94869.69;4985388;28;20037;-83
2022/02/20 07:19:00;;;;;;;12.80;10.27;;;;;;;5.83;92.04;94910.38;4985234;28;20034;-80
2022/02/20 07:21:28;;;;;;;21.90;12.80;;;;;;;5.92;92.53;94916.44;4982520;28;20039;-80
2022/02/20 07:23:55;;;;;;;17.63;10.43;;;;;;;5.50;94.17;94875.78;4981785;28;20077;-80
2022/02/20 07:26:20;;;;;;;17.17;10.32;;;;;;;6.14;94.86;94939.16;4997865;28;20102;-79
2022/02/20 07:28:46;;;;;;;15.85;9.23;;;;;;;5.88;93.28;94879.94;4995988;28;20484;-79
2022/02/20 07:59:38;;;;;;;22.23;14.18;;;;;;;7.28;81.42;94862.78;5784614;23;20042;-85
2022/02/20 08:38:21;;;;;;;19.23;13.20;;;;;;;11.26;56.24;94841.09;5819719;23;20046;-79
2022/02/20 08:40:46;;;;;;;15.50;12.10;;;;;;;11.99;52.19;94841.88;4972770;28;20532;-79
2022/02/20 08:43:11;;;;;;;15.27;11.27;;;;;;;12.23;50.80;94838.16;4981344;28;20134;-80
2022/02/20 08:45:37;;;;;;;24.67;13.63;;;;;;;12.91;49.45;94837.59;4987750;28;20022;-94
2022/02/20 08:48:04;;;;;;;17.00;12.15;;;;;;;13.00;47.61;94846.09;4990661;28;20030;-94
2022/02/20 08:50:30;;;;;;;14.23;11.60;;;;;;;12.64;48.82;94833.19;4989813;28;20933;-94
2022/02/20 08:52:55;;;;;;;21.27;13.10;;;;;;;13.04;50.14;94827.31;4987773;28;20018;-94
2022/02/20 08:55:21;;;;;;;26.90;13.63;;;;;;;13.06;49.29;94835.75;4991429;28;20030;-89
2022/02/20 08:57:46;;;;;;;24.73;13.07;;;;;;;13.17;50.02;94830.03;4991842;28;20026;-94
2022/02/20 09:05:22;;;;;;;18.15;12.38;;;;;;;12.37;50.08;94820.91;6012834;23;20014;-93
2022/02/20 09:07:48;;;;;;;18.25;13.23;;;;;;;12.42;50.28;94808.19;4951865;28;20574;-91
2022/02/20 09:10:13;;;;;;;20.60;12.68;;;;;;;13.17;49.82;94811.84;4955805;28;20098;-91
2022/02/20 09:12:39;;;;;;;16.20;11.85;;;;;;;12.13;48.62;94790.94;4970628;28;20034;-91
2022/02/20 09:15:07;;;;;;;19.02;13.07;;;;;;;12.83;48.47;94779.75;4954748;28;20031;-93
2022/02/20 09:17:32;;;;;;;16.00;11.85;;;;;;;12.10;48.81;94797.25;4970287;28;20097;-91
2022/02/20 09:22:33;;;;;;;18.00;10.25;;;;;;;12.98;47.81;94807.25;5980010;23;20018;-96
2022/02/20 09:24:58;;;;;;;13.70;10.82;;;;;;;12.26;47.74;94811.03;4989955;28;20255;-93
2022/02/20 09:27:24;;;;;;;19.95;11.43;;;;;;;13.07;46.57;94811.31;4986351;28;20022;-93
2022/02/20 09:29:49;;;;;;;15.25;9.40;;;;;;;14.12;44.80;94805.91;4976130;28;20038;-92
2022/02/20 09:32:17;;;;;;;13.27;9.95;;;;;;;14.52;44.02;94801.59;4991420;28;20092;-92
2022/02/20 09:34:42;;;;;;;17.77;10.55;;;;;;;14.41;44.60;94799.59;4990077;28;20030;-92
2022/02/20 09:37:07;;;;;;;19.80;10.88;;;;;;;15.71;41.87;94787.47;4991013;28;20030;-92
2022/02/20 09:39:33;;;;;;;18.63;10.52;;;;;;;14.24;43.87;94784.28;4978431;28;20034;-87
2022/02/20 09:41:59;;;;;;;18.30;11.18;;;;;;;13.40;44.59;94789.97;4976855;28;20326;-81
2022/02/20 09:44:27;;;;;;;16.15;10.32;;;;;;;16.44;41.18;94777.50;4966531;28;20027;-85
2022/02/20 09:46:53;;;;;;;19.17;10.85;;;;;;;17.99;37.76;94777.31;4967809;28;20452;-84
2022/02/20 09:49:19;;;;;;;42.95;11.30;;;;;;;17.00;38.65;94772.28;4971933;28;20027;-82
2022/02/20 09:51:44;;;;;;;16.35;8.48;;;;;;;17.35;38.34;94771.53;4965943;28;20315;-83
2022/02/20 09:54:10;;;;;;;11.68;8.40;;;;;;;16.89;39.33;94765.91;4966927;28;20033;-83
2022/02/20 09:56:38;;;;;;;10.00;7.00;;;;;;;15.62;41.64;94768.63;4968879;28;20034;-79
2022/02/20 09:59:04;;;;;;;9.43;6.50;;;;;;;15.44;42.05;94765.06;4968297;28;20022;-80
2022/02/20 10:01:29;;;;;;;9.95;6.13;;;;;;;15.68;41.43;94757.38;4966621;28;20038;-80
2022/02/20 10:03:55;;;;;;;8.45;5.82;;;;;;;15.71;40.11;94743.09;4970904;28;20034;-79
2022/02/20 10:06:23;;;;;;;13.98;6.90;;;;;;;15.72;40.87;94755.16;4980235;28;20018;-79
2022/02/20 10:08:51;;;;;;;10.63;6.75;;;;;;;16.15;39.67;94750.13;4985131;28;21125;-79
2022/02/20 10:11:25;;;;;;;9.82;7.47;;;;;;;17.71;38.24;94747.22;4970197;28;20023;-79
2022/02/20 10:13:52;;;;;;;9.35;8.05;;;;;;;16.89;39.59;94752.06;4965050;28;20081;-77
2022/02/20 10:16:30;;;;;;;14.88;8.48;;;;;;;16.91;39.67;94747.41;4966556;28;20035;-80
2022/02/20 10:18:58;;;;;;;14.30;7.85;;;;;;;17.27;38.39;94743.00;4979966;28;20034;-80
2022/02/20 10:21:30;;;;;;;12.60;7.32;;;;;;;16.49;41.02;94747.09;4985127;28;20403;-79
2022/02/20 10:24:05;;;;;;;11.55;7.90;;;;;;;16.25;40.22;94748.63;4984687;28;20035;-80
2022/02/20 10:26:33;;;;;;;17.58;10.07;;;;;;;17.48;39.27;94743.63;4984855;28;20026;-79
2022/02/20 10:29:08;;;;;;;13.80;7.72;;;;;;;17.01;39.09;94742.47;4984720;28;20225;-78
2022/02/20 10:31:42;;;;;;;13.38;7.82;;;;;;;16.04;41.16;94741.13;4983531;28;20065;-78
2022/02/20 10:34:09;;;;;;;9.55;7.10;;;;;;;15.62;42.96;94733.88;4983505;28;20462;-80
2022/02/20 10:36:51;;;;;;;15.93;8.07;;;;;;;16.56;41.40;94726.16;4985951;28;20033;-78
2022/02/20 10:39:21;;;;;;;12.35;6.15;;;;;;;15.94;41.11;94732.94;4982925;28;20081;-78
2022/02/20 10:41:47;;;;;;;10.07;6.57;;;;;;;15.87;41.90;94728.75;4984779;28;20022;-78
2022/02/20 10:44:13;;;;;;;12.23;8.40;;;;;;;16.14;41.30;94725.00;4984351;28;20511;-77
2022/02/20 10:46:38;;;;;;;15.65;7.80;;;;;;;16.05;41.37;94721.03;4983930;28;20046;-79
2022/02/20 10:49:04;;;;;;;16.15;9.63;;;;;;;16.17;41.94;94721.97;4968156;28;20472;-76
2022/02/20 10:51:38;;;;;;;14.93;9.95;;;;;;;15.29;43.19;94710.47;4967541;28;20049;-81
2022/02/20 10:54:03;;;;;;;17.77;9.27;;;;;;;16.57;41.59;94704.19;4984747;28;20057;-76
2022/02/20 10:56:40;;;;;;;9.10;7.30;;;;;;;15.65;42.39;94691.69;4983253;28;20064;-78
2022/02/20 10:59:06;;;;;;;12.25;7.63;;;;;;;15.12;44.27;94697.06;4984413;28;20500;-80
2022/02/20 11:01:32;;;;;;;11.63;7.15;;;;;;;15.89;42.54;94704.03;4982895;28;20038;-77
2022/02/20 11:04:05;;;;;;;10.65;7.90;;;;;;;15.17;43.29;94699.06;4982640;28;20117;-78
2022/02/20 11:06:33;;;;;;;12.77;8.65;;;;;;;15.26;46.00;94690.81;4979172;28;20046;-78
2022/02/20 11:08:59;;;;;;;13.95;9.25;;;;;;;15.04;46.08;94689.47;4965318;28;20571;-80
2022/02/20 11:11:49;;;;;;;14.82;8.80;;;;;;;15.72;45.92;94689.88;4966912;28;20055;-77
2022/02/20 11:14:18;;;;;;;19.35;9.32;;;;;;;16.12;43.99;94682.56;4965838;28;20113;-78
2022/02/20 11:16:52;;;;;;;16.48;9.18;;;;;;;16.41;44.49;94683.81;4978403;28;20038;-77
2022/02/20 11:19:23;;;;;;;11.07;8.77;;;;;;;15.51;45.14;94683.13;4986469;28;20034;-78
2022/02/20 11:21:58;;;;;;;13.00;10.18;;;;;;;15.74;46.48;94669.56;4985290;28;20503;-77
2022/02/20 11:24:26;;;;;;;14.73;10.18;;;;;;;15.46;46.40;94669.06;4985189;28;20042;-79
2022/02/20 11:26:53;;;;;;;14.45;11.50;;;;;;;15.05;46.63;94662.41;4984571;28;20051;-80
2022/02/20 11:29:19;;;;;;;19.30;9.57;;;;;;;15.24;48.06;94660.72;4985279;28;20034;-79
2022/02/20 11:31:45;;;;;;;11.50;9.27;;;;;;;15.62;46.85;94647.72;4984549;28;20030;-76
2022/02/20 11:34:10;;;;;;;14.13;9.75;;;;;;;15.77;45.58;94656.06;4986353;28;20562;-77
2022/02/20 11:36:36;;;;;;;10.30;8.63;;;;;;;15.92;45.13;94653.19;4984899;28;20463;-76
2022/02/20 11:39:11;;;;;;;10.82;8.85;;;;;;;15.81;45.37;94644.22;4985301;28;20052;-77
2022/02/20 11:41:39;;;;;;;14.93;9.77;;;;;;;15.06;47.43;94650.13;4985761;28;20097;-76
2022/02/20 11:44:12;;;;;;;10.95;8.93;;;;;;;15.05;46.97;94640.72;4982600;28;20490;-78
2022/02/20 11:46:52;;;;;;;18.98;8.75;;;;;;;15.50;46.52;94644.19;4985816;28;20441;-76
2022/02/20 11:49:27;;;;;;;;;;;;;;;15.41;47.03;94645.41;4968309;28;20101;-77
2022/02/20 11:52:06;;;;;;;13.68;8.05;;;;;;;15.05;47.94;94654.56;4970948;28;19914;-92
2022/02/20 11:54:33;;;;;;;13.93;7.90;;;;;;;15.02;46.87;94643.75;4966026;28;20041;-93
2022/02/20 11:57:28;;;;;;;9.98;8.13;;;;;;;14.90;48.46;94635.72;4971041;28;20400;-94
2022/02/20 12:00:02;;;;;;;13.13;9.02;;;;;;;14.74;49.60;94642.19;4982523;28;20113;-90
2022/02/20 12:02:29;;;;;;;12.63;9.55;;;;;;;14.67;49.39;94648.44;4988037;28;20042;-93
2022/02/20 12:04:54;;;;;;;12.98;10.15;;;;;;;14.71;51.33;94649.63;4987067;28;20031;-91
2022/02/20 12:07:42;;;;;;;12.98;10.02;;;;;;;14.67;51.10;94658.88;4987263;28;20093;-78
2022/02/20 12:10:20;;;;;;;14.50;11.88;;;;;;;14.41;50.90;94658.88;4984302;28;20077;-77
2022/02/20 12:12:51;;;;;;;17.73;10.45;;;;;;;14.11;52.25;94654.03;4980427;28;20511;-80
2022/02/20 12:15:39;;;;;;;16.33;9.02;;;;;;;14.17;52.46;94668.06;4961294;28;20081;-81
2022/02/20 12:18:11;;;;;;;13.55;8.90;;;;;;;14.07;52.32;94659.84;4972730;28;20080;-81
2022/02/20 12:20:51;;;;;;;15.60;9.65;;;;;;;14.02;54.17;94663.06;4972052;28;20545;-81
2022/02/20 12:23:29;;;;;;;15.27;9.80;;;;;;;14.45;51.89;94663.47;4975583;28;20043;-81
2022/02/20 12:25:56;;;;;;;11.20;8.77;;;;;;;14.15;53.20;94663.06;4975855;28;20523;-81
2022/02/20 12:28:30;;;;;;;11.57;7.68;;;;;;;13.89;53.06;94673.44;4967857;28;20045;-81
2022/02/20 12:30:55;;;;;;;10.93;8.10;;;;;;;14.02;53.82;94676.06;4975662;28;20038;-82
2022/02/20 12:33:30;;;;;;;14.02;9.48;;;;;;;14.06;54.21;94669.44;4953362;28;20033;-79
2022/02/20 12:35:57;;;;;;;13.77;9.93;;;;;;;13.99;54.67;94660.03;4984198;28;20450;-80
2022/02/20 12:38:22;;;;;;;11.35;9.02;;;;;;;13.80;54.91;94655.59;4986307;28;20033;-80
2022/02/20 12:40:48;;;;;;;11.85;9.15;;;;;;;14.15;54.72;94662.25;4984916;28;20031;-82